createdAt,value
2018-07-06T00:02:11.189Z,5.97
2018-07-06T00:04:51.754Z,5.67
2018-07-06T00:07:31.960Z,6.13
2018-07-06T00:10:12.341Z,5.13
2018-07-06T00:12:52.636Z,6.07
2018-07-06T00:15:33.180Z,6.03
2018-07-06T00:18:13.686Z,6.17
2018-07-06T00:20:53.955Z,5.13
2018-07-06T00:23:34.291Z,5.50
2018-07-06T00:26:14.585Z,6.00
2018-07-06T00:28:54.795Z,6.30
2018-07-06T00:31:35.167Z,5.60
2018-07-06T00:34:15.540Z,6.13
2018-07-06T00:36:55.972Z,5.57
2018-07-06T00:39:36.545Z,5.57
2018-07-06T00:42:16.941Z,5.60
2018-07-06T00:44:57.205Z,5.67
2018-07-06T00:47:37.504Z,5.43
2018-07-06T00:50:17.733Z,5.43
2018-07-06T00:52:57.991Z,5.93
2018-07-06T00:55:38.288Z,5.20
2018-07-06T00:58:23.166Z,5.27
2018-07-06T01:01:03.932Z,5.63
2018-07-06T01:03:44.309Z,5.50
2018-07-06T01:06:24.622Z,5.37
2018-07-06T01:09:04.913Z,5.13
2018-07-06T01:11:45.325Z,5.10
2018-07-06T01:14:25.702Z,5.37
2018-07-06T01:17:10.144Z,5.67
2018-07-06T01:19:50.552Z,5.57
2018-07-06T01:22:30.868Z,5.17
2018-07-06T01:25:11.215Z,5.23
2018-07-06T01:27:51.550Z,5.23
2018-07-06T01:30:31.866Z,4.87
2018-07-06T01:33:12.157Z,4.23
2018-07-06T01:35:52.465Z,5.27
2018-07-06T01:38:32.930Z,4.50
2018-07-06T01:41:13.213Z,4.63
2018-07-06T01:43:53.436Z,4.70
2018-07-06T01:46:33.690Z,4.67
2018-07-06T01:49:13.888Z,4.60
2018-07-06T01:51:54.188Z,3.93
2018-07-06T01:54:34.529Z,3.40
2018-07-06T01:57:14.937Z,4.00
2018-07-06T01:59:55.138Z,3.67
2018-07-06T02:02:35.558Z,3.57
2018-07-06T02:05:15.894Z,3.90
2018-07-06T02:07:56.270Z,3.87
2018-07-06T02:10:36.547Z,3.37
2018-07-06T02:13:16.914Z,3.50
2018-07-06T02:15:57.261Z,3.93
2018-07-06T02:18:37.749Z,3.50
2018-07-06T02:21:18.088Z,3.60
2018-07-06T02:23:58.447Z,3.30
2018-07-06T02:26:39.782Z,3.73
2018-07-06T02:29:20.088Z,3.43
2018-07-06T02:32:00.346Z,3.93
2018-07-06T02:34:40.859Z,3.60
2018-07-06T02:37:21.219Z,3.83
2018-07-06T02:40:01.784Z,4.67
2018-07-06T02:42:42.356Z,3.13
2018-07-06T02:45:22.990Z,3.27
2018-07-06T02:48:03.413Z,3.03
2018-07-06T02:50:43.755Z,3.10
2018-07-06T02:53:24.354Z,2.80
2018-07-06T02:56:04.593Z,2.60
2018-07-06T02:58:45.099Z,2.97
2018-07-06T03:01:25.489Z,3.00
2018-07-06T03:04:05.788Z,3.00
2018-07-06T03:06:46.237Z,2.87
2018-07-06T03:09:26.670Z,3.00
2018-07-06T03:12:06.969Z,3.10
2018-07-06T03:14:47.394Z,3.13
2018-07-06T03:17:27.749Z,3.00
2018-07-06T03:20:08.071Z,3.57
2018-07-06T03:22:48.354Z,3.57
2018-07-06T03:25:28.967Z,2.67
2018-07-06T03:28:09.257Z,3.10
2018-07-06T03:30:49.578Z,3.10
2018-07-06T03:33:29.870Z,3.10
2018-07-06T03:36:10.251Z,2.77
2018-07-06T03:38:50.594Z,3.47
2018-07-06T03:41:31.017Z,3.40
2018-07-06T03:44:11.342Z,3.30
2018-07-06T03:46:51.678Z,3.47
2018-07-06T03:49:32.014Z,3.17
2018-07-06T03:52:12.219Z,3.20
2018-07-06T03:54:55.380Z,3.10
2018-07-06T03:57:36.599Z,3.07
2018-07-06T04:00:17.078Z,3.70
2018-07-06T04:02:57.454Z,3.23
2018-07-06T04:05:37.789Z,2.83
2018-07-06T04:08:18.170Z,3.97
2018-07-06T04:10:58.393Z,3.53
2018-07-06T04:13:38.711Z,2.63
2018-07-06T04:16:19.152Z,2.97
2018-07-06T04:19:06.826Z,3.70
2018-07-06T04:21:47.273Z,3.47
2018-07-06T04:24:27.833Z,3.37
2018-07-06T04:27:08.286Z,3.93
2018-07-06T04:29:48.759Z,3.27
2018-07-06T04:32:29.126Z,3.40
2018-07-06T04:35:09.321Z,2.97
2018-07-06T04:37:49.833Z,3.57
2018-07-06T04:40:30.325Z,3.60
2018-07-06T04:43:10.510Z,2.97
2018-07-06T04:45:50.925Z,3.47
2018-07-06T04:48:31.324Z,3.17
2018-07-06T04:51:11.940Z,2.93
2018-07-06T04:53:52.469Z,2.77
2018-07-06T04:56:32.825Z,2.57
2018-07-06T04:59:13.339Z,2.70
2018-07-06T05:01:53.621Z,2.23
2018-07-06T05:04:34.140Z,2.37
2018-07-06T05:07:14.504Z,2.00
2018-07-06T05:09:54.968Z,2.80
2018-07-06T05:12:35.306Z,2.30
2018-07-06T05:15:15.729Z,2.63
2018-07-06T05:17:56.168Z,2.17
2018-07-06T05:20:36.561Z,2.10
2018-07-06T05:23:16.886Z,2.03
2018-07-06T05:25:57.284Z,2.60
2018-07-06T05:28:37.700Z,2.17
2018-07-06T05:31:18.622Z,1.93
2018-07-06T05:33:58.956Z,2.40
2018-07-06T05:36:39.318Z,2.20
2018-07-06T05:39:19.742Z,2.63
2018-07-06T05:42:00.251Z,2.50
2018-07-06T05:44:40.537Z,2.53
2018-07-06T05:47:20.979Z,3.03
2018-07-06T05:50:01.535Z,2.33
2018-07-06T05:52:42.118Z,2.60
2018-07-06T05:55:22.400Z,2.80
2018-07-06T05:58:02.787Z,2.77
2018-07-06T06:00:43.170Z,3.03
2018-07-06T06:03:23.390Z,3.80
2018-07-06T06:06:03.687Z,3.20
2018-07-06T06:08:31.660Z,2.90
2018-07-06T06:11:00.594Z,3.00
2018-07-06T06:13:29.592Z,2.60
2018-07-06T06:18:25.551Z,3.63
2018-07-06T06:20:54.514Z,3.10
2018-07-06T06:23:23.452Z,3.03
2018-07-06T06:25:52.429Z,3.37
2018-07-06T06:28:21.409Z,3.33
2018-07-06T06:30:50.612Z,3.87
2018-07-06T06:33:19.604Z,3.73
2018-07-06T06:35:48.602Z,3.97
2018-07-06T06:38:17.546Z,4.63
2018-07-06T06:40:46.594Z,4.07
2018-07-06T06:43:16.277Z,4.33
2018-07-06T06:45:45.202Z,4.50
2018-07-06T06:48:14.146Z,5.00
2018-07-06T06:50:43.074Z,5.07
2018-07-06T06:53:12.051Z,5.07
2018-07-06T06:55:41.002Z,4.60
2018-07-06T06:58:09.941Z,4.77
2018-07-06T07:00:38.886Z,4.37
2018-07-06T07:03:07.881Z,5.47
2018-07-06T07:05:36.851Z,4.20
2018-07-06T07:08:05.781Z,5.93
2018-07-06T07:10:34.896Z,4.87
2018-07-06T07:13:03.812Z,4.70
2018-07-06T07:15:32.824Z,4.90
2018-07-06T07:18:01.789Z,4.40
2018-07-06T07:20:30.781Z,4.50
2018-07-06T07:22:59.811Z,4.60
2018-07-06T07:25:28.840Z,4.20
2018-07-06T07:27:57.794Z,4.23
2018-07-06T07:30:26.761Z,4.50
2018-07-06T07:32:55.691Z,4.20
2018-07-06T07:35:24.636Z,3.73
2018-07-06T07:37:53.562Z,3.80
2018-07-06T07:40:22.488Z,3.77
2018-07-06T07:42:51.450Z,3.43
2018-07-06T07:45:20.466Z,3.70
2018-07-06T07:47:49.438Z,3.53
2018-07-06T07:50:18.381Z,3.50
2018-07-06T07:52:58.751Z,3.70
2018-07-06T07:55:27.672Z,3.40
2018-07-06T07:57:56.649Z,2.90
2018-07-06T08:00:26.009Z,3.33
2018-07-06T08:02:54.859Z,3.23
2018-07-06T08:05:23.821Z,3.33
2018-07-06T08:07:52.778Z,3.63
2018-07-06T08:10:21.777Z,3.70
2018-07-06T08:12:50.762Z,3.13
2018-07-06T08:15:19.674Z,3.27
2018-07-06T08:17:48.622Z,2.97
2018-07-06T08:20:17.545Z,2.73
2018-07-06T08:22:46.581Z,2.63
2018-07-06T08:25:15.516Z,2.63
2018-07-06T08:27:44.452Z,2.53
2018-07-06T08:30:13.414Z,2.60
2018-07-06T08:32:42.342Z,2.60
2018-07-06T08:35:22.703Z,2.23
2018-07-06T08:38:03.621Z,2.63
2018-07-06T08:40:32.590Z,2.60
2018-07-06T08:43:02.815Z,3.20
2018-07-06T08:45:32.610Z,3.20
2018-07-06T08:48:01.519Z,3.10
2018-07-06T08:50:30.473Z,4.20
2018-07-06T08:52:59.607Z,3.00
2018-07-06T08:55:28.926Z,2.93
2018-07-06T08:57:58.615Z,2.90
2018-07-06T09:00:27.540Z,2.70
2018-07-06T09:02:56.493Z,2.70
2018-07-06T09:05:25.452Z,2.77
2018-07-06T09:07:54.748Z,2.67
2018-07-06T09:10:23.669Z,2.70
2018-07-06T09:12:52.647Z,2.87
2018-07-06T09:15:21.617Z,1.90
2018-07-06T09:17:50.565Z,2.60
2018-07-06T09:20:19.654Z,2.93
2018-07-06T09:22:48.634Z,2.33
2018-07-06T09:25:17.689Z,2.17
2018-07-06T09:27:46.564Z,2.90
2018-07-06T09:30:15.512Z,2.80
2018-07-06T09:32:44.435Z,2.40
2018-07-06T09:35:13.516Z,2.83
2018-07-06T09:37:42.299Z,2.10
2018-07-06T09:40:11.242Z,2.50
2018-07-06T09:42:40.177Z,2.53
2018-07-06T09:45:09.127Z,2.80
2018-07-06T09:47:38.076Z,2.87
2018-07-06T09:50:07.041Z,2.53
2018-07-06T09:52:35.973Z,3.37
2018-07-06T09:55:04.910Z,2.60
2018-07-06T09:57:33.852Z,2.40
2018-07-06T10:00:02.829Z,3.37
2018-07-06T10:02:31.862Z,2.70
2018-07-06T10:05:00.871Z,2.83
2018-07-06T10:07:29.864Z,2.33
2018-07-06T10:09:58.810Z,2.40
2018-07-06T10:12:27.826Z,2.23
2018-07-06T10:14:56.973Z,2.97
2018-07-06T10:17:25.992Z,2.50
2018-07-06T10:19:54.984Z,3.03
2018-07-06T10:22:23.849Z,2.17
2018-07-06T10:24:52.798Z,3.03
2018-07-06T10:27:26.640Z,2.50
2018-07-06T10:30:03.277Z,3.50
2018-07-06T10:32:32.212Z,2.63
2018-07-06T10:35:01.273Z,2.70
2018-07-06T10:37:30.670Z,2.53
2018-07-06T10:39:59.652Z,2.90
2018-07-06T10:42:28.582Z,3.27
2018-07-06T10:44:57.553Z,2.42
2018-07-06T10:47:26.480Z,2.70
2018-07-06T10:49:55.410Z,3.20
2018-07-06T10:52:24.360Z,2.57
2018-07-06T10:54:53.306Z,2.83
2018-07-06T10:57:22.221Z,2.83
2018-07-06T10:59:51.190Z,2.63
2018-07-06T11:02:20.150Z,2.97
2018-07-06T11:04:49.098Z,3.00
2018-07-06T11:07:18.040Z,3.30
2018-07-06T11:09:47.316Z,3.12
2018-07-06T11:12:16.661Z,2.67
2018-07-06T11:14:48.509Z,2.90
2018-07-06T11:17:22.950Z,3.23
2018-07-06T11:19:51.870Z,3.07
2018-07-06T11:22:20.863Z,2.83
2018-07-06T11:24:49.770Z,3.03
2018-07-06T11:27:18.690Z,2.70
2018-07-06T11:29:47.727Z,3.07
2018-07-06T11:32:16.661Z,2.90
2018-07-06T11:34:45.605Z,3.47
2018-07-06T11:37:14.487Z,2.97
2018-07-06T11:39:43.412Z,3.00
2018-07-06T11:42:12.405Z,2.67
2018-07-06T11:44:41.325Z,2.83
2018-07-06T11:47:10.289Z,2.83
2018-07-06T11:49:39.229Z,3.37
2018-07-06T11:52:08.173Z,2.60
2018-07-06T11:54:37.091Z,3.12
2018-07-06T11:57:06.009Z,2.90
2018-07-06T11:59:34.932Z,2.90
2018-07-06T12:02:03.834Z,3.10
2018-07-06T12:04:32.966Z,3.00
2018-07-06T12:07:01.792Z,4.05
2018-07-06T12:09:30.744Z,3.25
2018-07-06T12:12:00.166Z,2.90
2018-07-06T12:14:29.166Z,3.20
2018-07-06T12:16:58.144Z,3.52
2018-07-06T12:19:27.061Z,3.17
2018-07-06T12:21:56.154Z,2.87
2018-07-06T12:24:25.085Z,2.83
2018-07-06T12:26:54.015Z,3.17
2018-07-06T12:29:23.003Z,3.15
2018-07-06T12:31:52.062Z,3.70
2018-07-06T12:34:21.124Z,3.35
2018-07-06T12:36:54.851Z,3.27
2018-07-06T12:39:24.240Z,3.02
2018-07-06T12:41:53.156Z,3.40
2018-07-06T12:44:22.134Z,3.70
2018-07-06T12:46:51.190Z,2.60
2018-07-06T12:49:20.156Z,2.67
2018-07-06T12:51:49.176Z,3.13
2018-07-06T12:54:18.119Z,3.20
2018-07-06T12:56:47.026Z,3.17
2018-07-06T12:59:15.953Z,3.20
2018-07-06T13:01:44.880Z,2.90
2018-07-06T13:04:13.781Z,2.70
2018-07-06T13:06:42.808Z,3.30
2018-07-06T13:09:11.746Z,3.20
2018-07-06T13:11:40.718Z,3.73
2018-07-06T13:14:09.694Z,3.77
2018-07-06T13:16:38.595Z,3.70
2018-07-06T13:19:07.525Z,4.47
2018-07-06T13:21:36.461Z,3.93
2018-07-06T13:24:05.654Z,4.07
2018-07-06T13:26:34.615Z,3.77
2018-07-06T13:29:03.541Z,4.17
2018-07-06T13:31:32.509Z,4.97
2018-07-06T13:34:01.462Z,4.90
2018-07-06T13:36:30.435Z,5.07
2018-07-06T13:38:59.392Z,4.83
2018-07-06T13:41:28.405Z,5.23
2018-07-06T13:43:57.325Z,4.93
2018-07-06T13:46:26.278Z,4.87
2018-07-06T13:48:55.295Z,4.40
2018-07-06T13:51:25.020Z,6.00
2018-07-06T13:53:53.954Z,6.23
2018-07-06T13:56:22.959Z,6.50
2018-07-06T13:58:51.911Z,6.03
2018-07-06T14:01:21.242Z,5.47
2018-07-06T14:03:50.190Z,5.33
2018-07-06T14:06:19.241Z,5.37
2018-07-06T14:08:48.259Z,4.60
2018-07-06T14:11:17.969Z,4.47
2018-07-06T14:13:46.934Z,4.80
2018-07-06T14:16:15.905Z,3.93
2018-07-06T14:18:44.816Z,4.83
2018-07-06T14:21:13.766Z,4.00
2018-07-06T14:23:42.752Z,3.37
2018-07-06T14:26:11.765Z,3.67
2018-07-06T14:28:40.751Z,3.70
2018-07-06T14:31:11.468Z,3.53
2018-07-06T14:33:40.473Z,3.70
2018-07-06T14:36:09.689Z,4.30
2018-07-06T14:38:38.677Z,3.63
2018-07-06T14:41:07.685Z,3.70
2018-07-06T14:43:36.597Z,4.00
2018-07-06T14:46:05.536Z,3.60
2018-07-06T14:48:34.531Z,4.00
2018-07-06T14:51:03.525Z,3.60
2018-07-06T14:53:32.462Z,3.70
2018-07-06T14:56:01.399Z,4.73
2018-07-06T14:58:30.444Z,3.57
2018-07-06T15:01:00.497Z,3.97
2018-07-06T15:03:29.430Z,4.10
2018-07-06T15:05:58.449Z,3.80
2018-07-06T15:08:27.365Z,4.27
2018-07-06T15:10:56.646Z,4.43
2018-07-06T15:13:25.577Z,5.57
2018-07-06T15:15:54.714Z,4.53
2018-07-06T15:18:23.696Z,4.83
2018-07-06T15:20:52.565Z,5.13
2018-07-06T15:23:21.476Z,5.17
2018-07-06T15:25:50.434Z,5.83
2018-07-06T15:28:19.361Z,4.30
2018-07-06T15:30:48.316Z,4.60
2018-07-06T15:33:17.231Z,4.23
2018-07-06T15:35:46.166Z,5.00
2018-07-06T15:38:15.110Z,4.73
2018-07-06T15:40:44.033Z,4.87
2018-07-06T15:43:13.317Z,4.97
2018-07-06T15:45:42.365Z,3.87
2018-07-06T15:48:11.430Z,5.50
2018-07-06T15:50:40.630Z,3.70
2018-07-06T15:53:09.827Z,5.07
2018-07-06T15:55:39.023Z,4.37
2018-07-06T15:58:08.089Z,4.87
2018-07-06T16:00:37.029Z,4.30
2018-07-06T16:03:06.009Z,3.97
2018-07-06T16:05:34.955Z,4.23
2018-07-06T16:08:04.001Z,4.60
2018-07-06T16:10:33.006Z,4.17
2018-07-06T16:13:02.186Z,4.20
2018-07-06T16:15:31.142Z,4.53
2018-07-06T16:18:00.144Z,4.90
2018-07-06T16:20:29.108Z,4.57
2018-07-06T16:22:58.069Z,4.90
2018-07-06T16:25:27.222Z,4.93
2018-07-06T16:27:56.142Z,4.37
2018-07-06T16:30:25.085Z,4.40
2018-07-06T16:32:54.023Z,4.03
2018-07-06T16:35:22.963Z,4.53
2018-07-06T16:37:51.899Z,3.90
2018-07-06T16:40:20.952Z,4.50
2018-07-06T16:42:49.949Z,3.70
2018-07-06T16:45:18.930Z,4.00
2018-07-06T16:47:48.094Z,4.10
2018-07-06T16:50:17.048Z,4.40
2018-07-06T16:52:46.194Z,3.37
2018-07-06T16:55:15.529Z,4.33
2018-07-06T16:57:44.488Z,4.30
2018-07-06T17:00:13.512Z,4.20
2018-07-06T17:02:42.461Z,3.23
2018-07-06T17:05:11.398Z,3.27
2018-07-06T17:07:40.448Z,3.20
2018-07-06T17:10:09.525Z,2.90
2018-07-06T17:12:38.534Z,2.50
2018-07-06T17:15:07.583Z,2.90
2018-07-06T17:17:36.553Z,3.13
2018-07-06T17:20:05.520Z,2.77
2018-07-06T17:22:35.157Z,2.67
2018-07-06T17:25:04.150Z,2.97
2018-07-06T17:27:33.193Z,3.10
2018-07-06T17:30:02.158Z,3.07
2018-07-06T17:32:31.138Z,3.23
2018-07-06T17:35:00.175Z,2.40
2018-07-06T17:37:29.225Z,2.70
2018-07-06T17:39:58.221Z,2.63
2018-07-06T17:42:27.417Z,3.10
2018-07-06T17:44:56.568Z,2.67
2018-07-06T17:47:25.537Z,2.57
2018-07-06T17:49:54.486Z,2.53
2018-07-06T17:52:24.151Z,2.50
2018-07-06T17:54:53.085Z,2.60
2018-07-06T17:57:22.049Z,3.60
2018-07-06T17:59:51.026Z,2.43
2018-07-06T18:02:19.972Z,2.60
2018-07-06T18:04:48.924Z,2.30
2018-07-06T18:07:17.907Z,2.70
2018-07-06T18:09:46.993Z,2.50
2018-07-06T18:12:15.987Z,2.77
2018-07-06T18:14:44.966Z,2.80
2018-07-06T18:17:13.974Z,3.20
2018-07-06T18:19:42.985Z,2.50
2018-07-06T18:22:11.977Z,2.50
2018-07-06T18:24:41.070Z,2.73
2018-07-06T18:27:10.741Z,2.87
2018-07-06T18:29:39.742Z,3.20
2018-07-06T18:32:09.290Z,2.23
2018-07-06T18:34:38.675Z,2.97
2018-07-06T18:37:07.766Z,2.30
2018-07-06T18:39:36.705Z,2.73
2018-07-06T18:42:05.725Z,2.30
2018-07-06T18:44:34.659Z,2.57
2018-07-06T18:47:04.075Z,2.60
2018-07-06T18:49:33.037Z,2.93
2018-07-06T18:52:02.077Z,2.80
2018-07-06T18:54:31.017Z,2.30
2018-07-06T18:56:59.962Z,2.40
2018-07-06T18:59:29.005Z,3.90
2018-07-06T19:01:58.005Z,2.60
2018-07-06T19:04:26.971Z,2.70
2018-07-06T19:06:56.589Z,2.30
2018-07-06T19:09:25.920Z,2.87
2018-07-06T19:11:54.870Z,3.20
2018-07-06T19:14:23.876Z,3.10
2018-07-06T19:16:52.902Z,2.73
2018-07-06T19:25:18.184Z,3.00
2018-07-06T19:27:47.229Z,3.07
2018-07-06T19:30:16.179Z,2.87
2018-07-06T19:32:45.115Z,3.20
2018-07-06T19:35:14.108Z,2.90
2018-07-06T19:37:44.018Z,3.10
2018-07-06T19:40:12.955Z,3.63
2018-07-06T19:42:41.901Z,3.57
2018-07-06T19:45:10.811Z,2.90
2018-07-06T19:47:39.768Z,2.60
2018-07-06T19:50:08.722Z,3.33
2018-07-06T19:52:37.698Z,3.20
2018-07-06T19:55:06.669Z,3.07
2018-07-06T19:57:35.648Z,3.30
2018-07-06T20:00:04.519Z,3.70
2018-07-06T20:02:33.412Z,3.57
2018-07-06T20:05:02.313Z,3.53
2018-07-06T20:07:31.298Z,3.30
2018-07-06T20:10:00.187Z,3.10
2018-07-06T20:12:29.092Z,3.73
2018-07-06T20:14:58.373Z,3.80
2018-07-06T20:17:27.334Z,4.10
2018-07-06T20:19:56.206Z,4.47
2018-07-06T20:22:25.160Z,3.70
2018-07-06T20:24:54.100Z,3.77
2018-07-06T20:27:23.007Z,3.83
2018-07-06T20:29:51.922Z,3.90
2018-07-06T20:32:20.825Z,3.77
2018-07-06T20:34:49.723Z,4.13
2018-07-06T20:37:18.723Z,4.23
2018-07-06T20:39:47.624Z,4.27
2018-07-06T20:42:16.574Z,4.20
2018-07-06T20:44:45.493Z,4.23
2018-07-06T20:47:14.464Z,4.10
2018-07-06T20:49:43.354Z,5.10
2018-07-06T20:52:12.280Z,4.33
2018-07-06T20:54:41.212Z,4.23
2018-07-06T20:57:10.111Z,4.17
2018-07-06T20:59:39.016Z,5.07
2018-07-06T21:02:08.029Z,4.23
2018-07-06T21:04:36.937Z,4.73
2018-07-06T21:07:06.142Z,4.63
2018-07-06T21:09:35.092Z,5.33
2018-07-06T21:12:04.223Z,5.50
2018-07-06T21:14:33.093Z,4.60
2018-07-06T21:17:01.985Z,5.93
2018-07-06T21:19:30.948Z,4.97
2018-07-06T21:21:59.884Z,5.70
2018-07-06T21:24:28.826Z,5.40
2018-07-06T21:26:57.727Z,4.80
2018-07-06T21:29:26.643Z,4.90
2018-07-06T21:31:55.561Z,5.03
2018-07-06T21:34:24.588Z,5.40
2018-07-06T21:36:53.524Z,5.47
2018-07-06T21:39:22.429Z,5.23
2018-07-06T21:41:51.447Z,5.10
2018-07-06T21:44:20.397Z,5.23
2018-07-06T21:46:49.277Z,4.53
2018-07-06T21:49:18.299Z,5.27
2018-07-06T21:51:47.236Z,4.87
2018-07-06T21:54:16.183Z,5.47
2018-07-06T21:56:45.070Z,4.77
2018-07-06T21:59:13.978Z,6.07
2018-07-06T22:01:42.949Z,5.07
2018-07-06T22:04:11.793Z,6.17
2018-07-06T22:06:40.688Z,5.40
2018-07-06T22:09:09.620Z,5.13
2018-07-06T22:11:38.546Z,4.47
2018-07-06T22:14:07.464Z,4.23
2018-07-06T22:16:36.378Z,5.33
2018-07-06T22:19:05.348Z,5.80
2018-07-06T22:21:34.295Z,5.50
2018-07-06T22:24:03.194Z,4.77
2018-07-06T22:26:32.105Z,4.53
2018-07-06T22:29:00.979Z,5.53
2018-07-06T22:31:29.888Z,5.90
2018-07-06T22:33:58.868Z,4.80
2018-07-06T22:36:27.765Z,4.37
2018-07-06T22:38:56.685Z,5.30
2018-07-06T22:41:25.604Z,4.90
2018-07-06T22:43:54.520Z,5.63
2018-07-06T22:46:23.408Z,5.17
2018-07-06T22:48:52.302Z,4.53
2018-07-06T22:51:21.233Z,4.87
2018-07-06T22:53:50.129Z,5.13
2018-07-06T22:56:19.044Z,4.97
2018-07-06T22:58:47.934Z,4.43
2018-07-06T23:01:16.830Z,5.17
2018-07-06T23:03:45.769Z,5.10
2018-07-06T23:06:14.675Z,4.37
2018-07-06T23:08:43.606Z,5.03
2018-07-06T23:11:12.772Z,4.57
2018-07-06T23:13:41.717Z,5.23
2018-07-06T23:16:10.708Z,5.40
2018-07-06T23:18:39.963Z,4.30
2018-07-06T23:21:09.260Z,5.10
2018-07-06T23:23:38.253Z,4.80
2018-07-06T23:26:07.145Z,4.43
2018-07-06T23:28:36.050Z,4.20
2018-07-06T23:31:04.946Z,4.23
2018-07-06T23:33:33.848Z,3.73
2018-07-06T23:36:02.749Z,3.67
2018-07-06T23:38:31.670Z,3.63
2018-07-06T23:41:00.621Z,3.07
2018-07-06T23:43:29.482Z,3.30
2018-07-06T23:45:58.380Z,3.10
2018-07-06T23:48:27.311Z,3.50
2018-07-06T23:50:56.360Z,3.10
2018-07-06T23:53:25.276Z,3.47
2018-07-06T23:55:54.168Z,3.70
2018-07-06T23:58:23.106Z,3.07
